Αρχική σελίδα
METAR-TAF:

METAR-TAF

Αεροδρόμια :

Karl Stefan Memorial Airport

Norfolk, Νεμπράσκα, Ηνωμένες Πολιτείες Αμερικής

γεωγραφικό πλάτος: 41-58-50N, γεωγραφικό μήκος: 097-26-13W, υψόμετρο: 479 μ

Παρών καιρός

Η αναφορά έγινε 27 λεπτά πριν, στις 00:56 UTC
Άνεμος 6 kt από Β/BA
Θερμοκρασία 14°C
Υγρασία 51%
Πίεση 1016 hPa
Ορατότητα: 16.1 χλμ
Καθαρός ουρανός

METAR: KOFK 220056Z AUTO 02006KT 10SM CLR 14/04 A3000 RMK AO2 SLP165 T01440044

Χρόνος: 20:23 (01:23 UTC)

Πρόγνωση Καιρού

Η αναφορά έγινε 1 ώρα και 54 λεπτά πριν, στις 23:29 UTC
Η πρόγνωση ισχύει από τις 22 στις 00 UTC έως τις 22 στις 24 UTC
Άνεμος 7 kt από Β
Ορατότητα: 10 χλμ
Καθαρός ουρανός

TAF: KOFK 212329Z 2200/2224 35007KT P6SM SKC

Μετεωρολογικές αναφορές και προγνώσεις για περισσότερα από 4000 αεροδρόμια (δελτία METAR και TAF).

Οι διαθέσιμοι σταθμοί απεικονίζονται στο χάρτη με κίτρινες και κόκκινες κουκκίδες.

Μετακινήστε το ποντίκι πάνω από τις κουκκίδες για να δείτε το όνομα του σταθμού.

Στη συνέχεια, κάντε κλικ για να δείτε τις μετεωρολογικές αναφορές και τις προγνώσεις καιρού.

Για να αλλάξετε το χάρτη: κάντε κλικ στα πράσινα κουμπιά με τον μαύρο σταυρό για να ζουμάρετε, στο πράσινο κουμπί με την παύλα για να αφαιρέσετε το ζουμ ή στα πράσινα βέλη για να αντιπαραβάλλετε χάρτες.


METAR-TAF: